Time;durP1;ratioP1;P1;durP2;ratioP2;P2;SDS_P1;SDS_P2;PMS_P1;PMS_P2;Temp;Humidity;BMP_temperature;BMP_pressure;BME280_temperature;BME280_humidity;BME280_pressure;Samples;Min_cycle;Max_cycle;Signal;HPM_P1;HPM_P2
2023/09/06 00:01:33;;;;;;;1999.90;999.90;;;17.40;99.90;;;;;;5047642;28;20124;-69
2023/09/06 00:03:58;;;;;;;1999.90;999.90;;;17.40;99.90;;;;;;5051731;28;20037;-70
2023/09/06 00:06:24;;;;;;;1999.90;999.90;;;17.40;99.90;;;;;;5046720;28;20057;-70
2023/09/06 00:08:51;;;;;;;1999.90;999.90;;;17.50;99.90;;;;;;5048558;28;20048;-69
2023/09/06 00:11:17;;;;;;;1999.90;999.90;;;17.40;99.90;;;;;;5050422;28;20047;-69
2023/09/06 00:13:42;;;;;;;1999.90;999.90;;;17.40;99.90;;;;;;5048469;28;20049;-70
2023/09/06 00:16:08;;;;;;;1999.90;999.90;;;17.40;99.90;;;;;;5050243;28;20066;-69
2023/09/06 00:18:33;;;;;;;1999.90;999.90;;;17.40;99.90;;;;;;5050021;28;20493;-69
2023/09/06 00:20:59;;;;;;;1999.90;999.90;;;17.50;99.90;;;;;;5051323;28;20116;-70
2023/09/06 00:23:26;;;;;;;1999.90;999.90;;;17.40;99.90;;;;;;5032249;28;20078;-69
2023/09/06 00:25:54;;;;;;;1999.90;999.90;;;17.40;99.90;;;;;;5053787;28;20041;-69
2023/09/06 00:28:20;;;;;;;1999.90;999.90;;;17.40;99.90;;;;;;5044077;28;20041;-70
2023/09/06 00:30:46;;;;;;;1999.90;999.90;;;17.30;99.90;;;;;;5047480;28;20044;-70
2023/09/06 00:33:12;;;;;;;1999.90;999.90;;;17.30;99.90;;;;;;5047154;28;20041;-70
2023/09/06 00:35:40;;;;;;;1999.90;999.90;;;17.30;99.90;;;;;;5041715;28;20044;-70
2023/09/06 00:38:06;;;;;;;1999.90;999.90;;;17.30;99.90;;;;;;5058782;28;20033;-70
2023/09/06 00:40:37;;;;;;;1999.90;999.90;;;17.30;99.90;;;;;;5060971;28;20147;-70
2023/09/06 00:43:04;;;;;;;1999.90;999.90;;;17.20;99.90;;;;;;5039775;28;20040;-71
2023/09/06 00:45:45;;;;;;;1999.90;999.90;;;17.20;99.90;;;;;;5045225;28;20087;-70
2023/09/06 00:48:17;;;;;;;1999.90;999.90;;;17.20;99.90;;;;;;5036785;28;20050;-71
2023/09/06 00:50:43;;;;;;;1999.90;999.90;;;17.20;99.90;;;;;;5047223;28;20041;-71
2023/09/06 00:53:09;;;;;;;1999.90;999.90;;;17.10;99.90;;;;;;5029024;28;20047;-70
2023/09/06 00:55:37;;;;;;;1999.90;999.90;;;17.10;99.90;;;;;;5045831;28;20128;-70
2023/09/06 00:58:05;;;;;;;1999.90;999.90;;;17.10;99.90;;;;;;5047949;28;20587;-70
2023/09/06 01:00:31;;;;;;;1999.90;999.90;;;17.10;99.90;;;;;;5047549;28;20098;-70
2023/09/06 01:02:57;;;;;;;1999.90;999.90;;;17.00;99.90;;;;;;5047846;28;20048;-70
2023/09/06 01:05:25;;;;;;;1999.90;999.90;;;17.00;99.90;;;;;;5043637;28;20065;-70
2023/09/06 01:07:57;;;;;;;1999.90;999.90;;;16.90;99.90;;;;;;5047390;28;20057;-70
2023/09/06 01:10:22;;;;;;;1999.90;999.90;;;16.90;99.90;;;;;;5047006;28;20392;-70
2023/09/06 01:12:48;;;;;;;1999.90;999.90;;;17.00;99.90;;;;;;5048190;28;20156;-70
2023/09/06 01:15:14;;;;;;;1999.90;999.90;;;16.90;99.90;;;;;;5047360;28;20029;-70
2023/09/06 01:17:42;;;;;;;1999.90;999.90;;;16.90;99.90;;;;;;5052329;28;20374;-70
2023/09/06 01:20:17;;;;;;;1999.90;999.90;;;16.90;99.90;;;;;;5049038;28;20127;-71
2023/09/06 01:23:15;;;;;;;1999.90;999.90;;;16.90;99.90;;;;;;5042680;28;20037;-70
2023/09/06 01:25:41;;;;;;;1999.90;999.90;;;16.90;99.90;;;;;;5064738;28;20044;-70
2023/09/06 01:28:07;;;;;;;1999.90;999.90;;;16.90;99.90;;;;;;5056470;28;20040;-70
2023/09/06 01:30:32;;;;;;;1999.90;999.90;;;16.90;99.90;;;;;;5045669;28;20047;-70
2023/09/06 01:32:58;;;;;;;1999.90;999.90;;;16.90;99.90;;;;;;5051692;28;20040;-70
2023/09/06 01:35:24;;;;;;;1999.90;999.90;;;16.90;99.90;;;;;;5047922;28;20128;-70
2023/09/06 01:37:50;;;;;;;1999.90;999.90;;;16.90;99.90;;;;;;5053560;28;20045;-70
2023/09/06 01:40:19;;;;;;;1999.90;999.90;;;16.80;99.90;;;;;;5044891;28;20040;-70
2023/09/06 01:42:46;;;;;;;1999.90;999.90;;;16.80;99.90;;;;;;5048590;28;20049;-70
2023/09/06 01:45:14;;;;;;;1999.90;999.90;;;16.70;99.90;;;;;;5056781;28;20040;-70
2023/09/06 01:47:40;;;;;;;1999.90;999.90;;;16.60;99.90;;;;;;5048535;28;20133;-70
2023/09/06 01:50:06;;;;;;;1999.90;999.90;;;16.60;99.90;;;;;;5036481;28;20068;-70
2023/09/06 01:52:31;;;;;;;1999.90;999.90;;;16.60;99.90;;;;;;5026958;28;20452;-70
2023/09/06 01:54:57;;;;;;;1999.90;999.90;;;16.50;99.90;;;;;;5049390;28;20122;-70
2023/09/06 01:57:22;;;;;;;1999.90;999.90;;;16.50;99.90;;;;;;5035282;28;20041;-70
2023/09/06 01:59:50;;;;;;;1999.90;999.90;;;16.50;99.90;;;;;;5049301;28;20037;-70
2023/09/06 02:02:16;;;;;;;1999.90;999.90;;;16.50;99.90;;;;;;5035773;28;20033;-70
2023/09/06 02:04:42;;;;;;;1999.90;999.90;;;16.50;99.90;;;;;;5032600;28;20036;-70
2023/09/06 02:07:07;;;;;;;1999.90;999.90;;;16.50;99.90;;;;;;5063891;28;20056;-70
2023/09/06 02:09:33;;;;;;;1999.90;999.90;;;16.50;99.90;;;;;;5029339;28;20063;-70
2023/09/06 02:11:59;;;;;;;1999.90;999.90;;;16.40;99.90;;;;;;5033390;28;20242;-70
2023/09/06 02:14:25;;;;;;;1999.90;999.90;;;16.50;99.90;;;;;;5048777;28;20765;-70
2023/09/06 02:16:50;;;;;;;1999.90;999.90;;;16.50;99.90;;;;;;5051068;28;20495;-70
2023/09/06 02:19:16;;;;;;;1999.90;999.90;;;16.50;99.90;;;;;;5051014;28;20116;-70
2023/09/06 02:21:42;;;;;;;1999.90;999.90;;;16.50;99.90;;;;;;5031647;28;20949;-70
2023/09/06 02:24:08;;;;;;;1999.90;999.90;;;16.50;99.90;;;;;;5035151;28;20044;-70
2023/09/06 02:26:34;;;;;;;1999.90;999.90;;;16.40;99.90;;;;;;5048617;28;20094;-70
2023/09/06 02:29:00;;;;;;;1999.90;999.90;;;16.50;99.90;;;;;;5048143;28;20169;-70
2023/09/06 02:31:26;;;;;;;1999.90;999.90;;;16.40;99.90;;;;;;5049937;28;20630;-70
2023/09/06 02:33:52;;;;;;;1999.90;999.90;;;16.50;99.90;;;;;;5038192;28;20171;-71
2023/09/06 02:36:17;;;;;;;1999.90;999.90;;;16.50;99.90;;;;;;5046352;28;20101;-70
2023/09/06 02:38:43;;;;;;;1999.90;999.90;;;16.50;99.90;;;;;;5047872;28;20370;-70
2023/09/06 02:41:09;;;;;;;1999.90;999.90;;;16.40;99.90;;;;;;5051061;28;20032;-71
2023/09/06 02:43:35;;;;;;;1999.90;999.90;;;16.40;99.90;;;;;;5031400;28;20580;-71
2023/09/06 02:46:03;;;;;;;1999.90;999.90;;;16.40;99.90;;;;;;5031238;28;20044;-70
2023/09/06 02:48:29;;;;;;;1999.90;999.90;;;16.40;99.90;;;;;;5064363;28;20056;-70
2023/09/06 02:50:58;;;;;;;1999.90;999.90;;;16.40;99.90;;;;;;5048595;28;20132;-70
2023/09/06 02:53:26;;;;;;;1999.90;999.90;;;16.40;99.90;;;;;;5050088;28;20052;-70
2023/09/06 02:55:53;;;;;;;1999.90;999.90;;;16.40;99.90;;;;;;5050868;28;20460;-70
2023/09/06 02:58:25;;;;;;;1999.90;999.90;;;16.40;99.90;;;;;;5053201;28;20052;-70
2023/09/06 03:00:58;;;;;;;1999.90;999.90;;;16.40;99.90;;;;;;5059969;28;20405;-71
2023/09/06 03:03:26;;;;;;;1999.90;999.90;;;16.40;99.90;;;;;;5050175;28;20086;-70
2023/09/06 03:05:56;;;;;;;1999.90;999.90;;;16.40;99.90;;;;;;5044184;28;20057;-70
2023/09/06 03:08:25;;;;;;;1999.90;999.90;;;16.40;99.90;;;;;;5051711;28;20055;-70
2023/09/06 03:10:52;;;;;;;1999.90;999.90;;;16.40;99.90;;;;;;5035416;28;20045;-70
2023/09/06 03:13:20;;;;;;;1999.90;999.90;;;16.40;99.90;;;;;;5051914;28;20478;-70
2023/09/06 03:15:46;;;;;;;1999.90;999.90;;;16.40;99.90;;;;;;5059052;28;20055;-71
2023/09/06 03:18:11;;;;;;;1999.90;999.90;;;16.40;99.90;;;;;;5063858;28;20036;-70
2023/09/06 03:20:47;;;;;;;1999.90;999.90;;;16.50;99.90;;;;;;5049115;28;20041;-70
2023/09/06 03:23:17;;;;;;;1999.90;999.90;;;16.40;99.90;;;;;;5047886;28;20045;-70
2023/09/06 03:25:51;;;;;;;1999.90;999.90;;;16.40;99.90;;;;;;5066465;28;20092;-70
2023/09/06 03:28:18;;;;;;;1999.90;999.90;;;16.30;99.90;;;;;;5046022;28;20048;-71
2023/09/06 03:30:44;;;;;;;1999.90;999.90;;;16.30;99.90;;;;;;5026785;28;20037;-69
2023/09/06 03:33:10;;;;;;;1999.90;999.90;;;16.20;99.90;;;;;;5053027;28;20037;-70
2023/09/06 03:35:36;;;;;;;1999.90;999.90;;;16.20;99.90;;;;;;5045267;28;20041;-71
2023/09/06 03:38:02;;;;;;;1999.90;999.90;;;16.20;99.90;;;;;;5046220;28;20044;-70
2023/09/06 03:40:35;;;;;;;1999.90;999.90;;;16.20;99.90;;;;;;5030361;28;20091;-70
2023/09/06 03:43:29;;;;;;;1999.90;999.90;;;16.20;99.90;;;;;;5030201;28;20761;-70
2023/09/06 03:45:58;;;;;;;1999.90;999.90;;;16.20;99.90;;;;;;5052572;28;20519;-70
2023/09/06 03:48:26;;;;;;;1999.90;999.90;;;16.20;99.90;;;;;;5043156;28;20041;-70
2023/09/06 03:50:55;;;;;;;1999.90;999.90;;;16.20;99.90;;;;;;5061906;28;20390;-70
2023/09/06 03:53:23;;;;;;;1999.90;999.90;;;16.20;99.90;;;;;;5048099;28;20073;-70
2023/09/06 03:55:50;;;;;;;1999.90;999.90;;;16.20;99.90;;;;;;5047493;28;20051;-70
2023/09/06 03:58:15;;;;;;;1999.90;999.90;;;16.20;99.90;;;;;;5031251;28;20087;-70
2023/09/06 04:00:44;;;;;;;1999.90;999.90;;;16.20;99.90;;;;;;5048879;28;20037;-70
2023/09/06 04:03:11;;;;;;;1999.90;999.90;;;16.20;99.90;;;;;;5048888;28;20076;-69
2023/09/06 04:05:36;;;;;;;1999.90;999.90;;;16.10;99.90;;;;;;5057896;28;20045;-69
2023/09/06 04:08:07;;;;;;;1999.90;999.90;;;16.10;99.90;;;;;;5051254;28;20067;-69
2023/09/06 04:10:40;;;;;;;1999.90;999.90;;;16.10;99.90;;;;;;5045319;28;20048;-70
2023/09/06 04:13:07;;;;;;;1999.90;999.90;;;16.10;99.90;;;;;;5052233;28;20092;-70
2023/09/06 04:15:36;;;;;;;1999.90;999.90;;;16.10;99.90;;;;;;5033887;28;20082;-70
2023/09/06 04:18:10;;;;;;;1999.90;999.90;;;16.10;99.90;;;;;;5055450;28;20037;-70
2023/09/06 04:20:37;;;;;;;1999.90;999.90;;;16.10;99.90;;;;;;5044418;28;20045;-70
2023/09/06 04:23:05;;;;;;;1999.90;999.90;;;16.10;99.90;;;;;;5046337;28;20068;-70
2023/09/06 04:25:34;;;;;;;1999.90;999.90;;;16.10;99.90;;;;;;5042706;28;20052;-70
2023/09/06 04:28:01;;;;;;;1999.90;999.90;;;16.10;99.90;;;;;;5030101;28;20053;-70
2023/09/06 04:30:28;;;;;;;1999.90;999.90;;;16.10;99.90;;;;;;5058114;28;20060;-70
2023/09/06 04:32:57;;;;;;;1999.90;999.90;;;16.00;99.90;;;;;;5043607;28;20484;-69
2023/09/06 04:35:31;;;;;;;1999.90;999.90;;;16.00;99.90;;;;;;5027843;28;20037;-70
2023/09/06 04:37:57;;;;;;;1999.90;999.90;;;15.90;99.90;;;;;;5049642;28;20064;-69
2023/09/06 04:40:22;;;;;;;1999.90;999.90;;;15.80;99.90;;;;;;5048167;28;20045;-69
2023/09/06 04:42:48;;;;;;;1999.90;999.90;;;15.80;99.90;;;;;;5041150;28;20048;-70
2023/09/06 04:45:13;;;;;;;1999.90;999.90;;;15.70;99.90;;;;;;5045842;28;20127;-70
2023/09/06 04:47:43;;;;;;;1999.90;999.90;;;15.80;99.90;;;;;;5046935;28;20052;-69
2023/09/06 04:50:11;;;;;;;1999.90;999.90;;;15.80;99.90;;;;;;5045241;28;20755;-69
2023/09/06 04:52:43;;;;;;;1999.90;999.90;;;15.80;99.90;;;;;;5044477;28;20040;-70
2023/09/06 04:55:09;;;;;;;1999.90;999.90;;;15.80;99.90;;;;;;5046663;28;20544;-69
2023/09/06 04:57:38;;;;;;;1999.90;999.90;;;15.70;99.90;;;;;;5055371;28;20052;-70
2023/09/06 05:00:17;;;;;;;1999.90;999.90;;;15.60;99.90;;;;;;5048032;28;20052;-70
2023/09/06 05:02:45;;;;;;;1999.90;999.90;;;15.60;99.90;;;;;;5043950;28;20501;-70
2023/09/06 05:05:12;;;;;;;1999.90;999.90;;;15.60;99.90;;;;;;5035418;28;20123;-69
2023/09/06 05:07:38;;;;;;;1999.90;999.90;;;15.50;99.90;;;;;;5053712;28;20044;-70
2023/09/06 05:10:04;;;;;;;1999.90;999.90;;;15.50;99.90;;;;;;5049360;28;20075;-70
2023/09/06 05:12:29;;;;;;;1999.90;999.90;;;15.50;99.90;;;;;;5054631;28;20151;-70
2023/09/06 05:14:55;;;;;;;1999.90;999.90;;;15.50;99.90;;;;;;5045745;28;20143;-70
2023/09/06 05:17:21;;;;;;;1999.90;999.90;;;15.50;99.90;;;;;;5056145;28;20036;-70
2023/09/06 05:19:52;;;;;;;1999.90;999.90;;;15.40;99.90;;;;;;5053377;28;20041;-69
2023/09/06 05:22:18;;;;;;;1999.90;999.90;;;15.40;99.90;;;;;;5047586;28;20037;-70
2023/09/06 05:24:45;;;;;;;1999.90;999.90;;;15.40;99.90;;;;;;5065384;28;20045;-69
2023/09/06 05:27:11;;;;;;;1999.90;999.90;;;15.40;99.90;;;;;;5053474;28;20033;-69
2023/09/06 05:29:36;;;;;;;1999.90;999.90;;;15.40;99.90;;;;;;5049122;28;20102;-69
2023/09/06 05:32:03;;;;;;;1999.90;999.90;;;15.40;99.90;;;;;;5050388;28;20090;-69
2023/09/06 05:34:29;;;;;;;1999.90;999.90;;;15.40;99.90;;;;;;5059407;28;20061;-69
2023/09/06 05:36:55;;;;;;;1999.90;999.90;;;15.50;99.90;;;;;;5045395;28;20051;-70
2023/09/06 05:39:21;;;;;;;1999.90;999.90;;;15.50;99.90;;;;;;5049596;28;20045;-70
2023/09/06 05:41:50;;;;;;;1999.90;999.90;;;15.50;99.90;;;;;;5051305;28;20047;-70
2023/09/06 05:44:16;;;;;;;1999.90;999.90;;;15.60;99.90;;;;;;5049222;28;20045;-70
2023/09/06 05:46:43;;;;;;;1999.90;999.90;;;15.60;99.90;;;;;;5057382;28;20071;-70
2023/09/06 05:49:08;;;;;;;1999.90;999.90;;;15.70;99.90;;;;;;5054119;28;20049;-69
2023/09/06 05:51:35;;;;;;;1999.90;999.90;;;15.80;99.90;;;;;;5057037;28;20048;-69
2023/09/06 05:54:00;;;;;;;1999.90;999.90;;;15.80;99.90;;;;;;5060055;28;20132;-70
2023/09/06 05:56:26;;;;;;;1999.90;999.90;;;15.90;99.90;;;;;;5037880;28;20116;-70
2023/09/06 05:58:52;;;;;;;1999.90;999.90;;;15.90;99.90;;;;;;5049358;28;20507;-70
2023/09/06 06:01:18;;;;;;;1999.90;999.90;;;16.00;99.90;;;;;;5045637;28;20032;-70
2023/09/06 06:03:45;;;;;;;1999.90;999.90;;;16.10;99.90;;;;;;5069014;28;20800;-71
2023/09/06 06:06:13;;;;;;;1999.90;999.90;;;16.10;99.90;;;;;;5045966;28;20501;-70
2023/09/06 06:08:41;;;;;;;1999.90;999.90;;;16.20;99.90;;;;;;5054247;28;20084;-70
2023/09/06 06:11:10;;;;;;;1999.90;999.90;;;16.30;99.90;;;;;;5032838;28;20493;-71
2023/09/06 06:13:37;;;;;;;1999.90;999.90;;;16.30;99.90;;;;;;5039979;28;20053;-70
2023/09/06 06:16:05;;;;;;;1999.90;999.90;;;16.40;99.90;;;;;;5054303;28;20119;-71
2023/09/06 06:18:30;;;;;;;1999.90;999.90;;;16.50;99.90;;;;;;5049241;28;20455;-70
2023/09/06 06:20:58;;;;;;;1999.90;999.90;;;16.60;99.90;;;;;;5046615;28;20048;-70
2023/09/06 06:23:24;;;;;;;1999.90;999.90;;;16.60;99.90;;;;;;5048745;28;20124;-70
2023/09/06 06:25:50;;;;;;;1999.90;999.90;;;16.80;99.90;;;;;;5048956;28;20052;-70
2023/09/06 06:28:15;;;;;;;1999.90;999.90;;;16.80;99.90;;;;;;5050350;28;20051;-70
2023/09/06 06:30:41;;;;;;;1999.90;999.90;;;16.90;99.90;;;;;;5046405;28;20140;-70
2023/09/06 06:33:07;;;;;;;1999.90;999.90;;;17.00;99.90;;;;;;5034718;28;20033;-71
2023/09/06 06:35:33;;;;;;;1999.90;999.90;;;17.10;99.90;;;;;;5052558;28;20098;-70
2023/09/06 06:37:58;;;;;;;1999.90;999.90;;;17.20;99.90;;;;;;5051877;28;20524;-70
2023/09/06 06:40:26;;;;;;;1999.90;999.90;;;17.30;99.90;;;;;;5021567;28;20037;-70
2023/09/06 06:42:51;;;;;;;1999.90;999.90;;;17.30;99.90;;;;;;5048775;28;20524;-70
2023/09/06 06:45:17;;;;;;;1999.90;999.90;;;17.50;99.90;;;;;;5056625;28;20099;-71
2023/09/06 06:47:42;;;;;;;1999.90;999.90;;;17.60;99.90;;;;;;5051841;28;20041;-70
2023/09/06 06:50:09;;;;;;;1999.90;999.90;;;17.60;99.90;;;;;;5060164;28;20499;-70
2023/09/06 06:52:36;;;;;;;1999.90;999.90;;;17.70;99.90;;;;;;5037263;28;20049;-71
2023/09/06 06:55:03;;;;;;;1999.90;999.90;;;17.80;99.90;;;;;;5055918;28;20053;-70
2023/09/06 06:57:30;;;;;;;1999.90;999.90;;;17.90;99.90;;;;;;5060565;28;20044;-70
2023/09/06 06:59:55;;;;;;;1999.90;999.90;;;18.10;99.90;;;;;;5050187;28;20040;-71
2023/09/06 07:02:21;;;;;;;1999.90;999.90;;;18.30;99.90;;;;;;5048474;28;20082;-70
2023/09/06 07:04:47;;;;;;;1999.90;999.90;;;18.50;99.90;;;;;;5034630;28;20118;-70
2023/09/06 07:07:13;;;;;;;1999.90;999.90;;;18.70;99.90;;;;;;5037903;28;20053;-71
2023/09/06 07:09:38;;;;;;;1999.90;999.90;;;18.80;99.90;;;;;;5045627;28;20382;-71
2023/09/06 07:12:04;;;;;;;1999.90;999.90;;;19.00;99.90;;;;;;5038391;28;20049;-71
2023/09/06 07:14:30;;;;;;;1999.90;999.90;;;19.40;99.90;;;;;;5040730;28;20045;-71
2023/09/06 07:16:56;;;;;;;1999.90;999.90;;;19.60;99.90;;;;;;5034082;28;20038;-71
2023/09/06 07:19:22;;;;;;;1999.90;999.90;;;19.70;99.90;;;;;;5042825;28;20048;-71
2023/09/06 07:21:47;;;;;;;1999.90;999.90;;;19.90;99.90;;;;;;5047135;28;20129;-71
2023/09/06 07:24:14;;;;;;;1999.90;999.90;;;20.40;99.90;;;;;;5043193;28;20096;-71
2023/09/06 07:26:40;;;;;;;1999.90;999.90;;;20.60;99.90;;;;;;5049619;28;20059;-71
2023/09/06 07:29:06;;;;;;;1999.90;999.90;;;20.50;99.90;;;;;;5056269;28;20067;-71
2023/09/06 07:31:32;;;;;;;1999.90;999.90;;;20.50;99.90;;;;;;5056092;28;20405;-71
2023/09/06 07:33:58;;;;;;;1999.90;999.90;;;20.50;99.90;;;;;;5057592;28;20606;-71
2023/09/06 07:36:24;;;;;;;1999.90;999.90;;;20.50;99.90;;;;;;5051713;28;20041;-71
2023/09/06 07:38:54;;;;;;;1999.90;999.90;;;20.50;99.90;;;;;;5065493;28;20033;-71
2023/09/06 07:41:20;;;;;;;1999.90;999.90;;;20.60;99.90;;;;;;5052685;28;20040;-71
2023/09/06 07:43:46;;;;;;;1999.90;999.90;;;20.60;99.90;;;;;;5061150;28;20482;-71
2023/09/06 07:46:12;;;;;;;1999.90;999.90;;;20.70;99.90;;;;;;5040823;28;20045;-71
2023/09/06 07:48:38;;;;;;;1999.90;999.90;;;20.80;99.90;;;;;;5047037;28;20071;-71
2023/09/06 07:51:04;;;;;;;1999.90;999.90;;;20.90;99.90;;;;;;5034269;28;20045;-71
2023/09/06 07:53:31;;;;;;;1999.90;999.90;;;21.20;99.90;;;;;;5024960;28;20042;-71
2023/09/06 07:55:57;;;;;;;1999.90;999.90;;;21.40;99.90;;;;;;5047169;28;20119;-71
2023/09/06 07:58:23;;;;;;;363.42;346.88;;;21.40;99.90;;;;;;5040358;28;20246;-71
2023/09/06 08:00:50;;;;;;;1599.65;844.97;;;21.50;99.90;;;;;;5044830;28;20033;-71
2023/09/06 08:03:16;;;;;;;1999.90;999.90;;;21.50;99.90;;;;;;5057460;28;20048;-71
2023/09/06 08:05:42;;;;;;;1999.90;999.90;;;21.50;99.90;;;;;;5041894;28;20834;-71
2023/09/06 08:08:09;;;;;;;469.83;446.25;;;21.60;99.90;;;;;;5068437;28;20056;-71
2023/09/06 08:10:36;;;;;;;496.50;470.70;;;21.70;99.90;;;;;;5046835;28;20053;-71
2023/09/06 08:13:03;;;;;;;542.65;513.67;;;21.80;99.90;;;;;;5052047;28;20485;-71
2023/09/06 08:15:30;;;;;;;575.30;544.33;;;21.90;99.90;;;;;;5040242;28;20501;-71
2023/09/06 08:17:56;;;;;;;587.20;555.30;;;21.90;99.90;;;;;;5049460;28;20043;-71
2023/09/06 08:20:22;;;;;;;576.50;545.33;;;22.00;99.90;;;;;;5050903;28;20040;-71
2023/09/06 08:22:47;;;;;;;596.53;562.78;;;22.20;99.90;;;;;;5044413;28;20106;-71
2023/09/06 08:25:14;;;;;;;516.50;489.88;;;22.30;99.90;;;;;;5047183;28;20048;-71
2023/09/06 08:27:40;;;;;;;516.58;490.08;;;22.40;99.90;;;;;;5042085;28;20041;-71
2023/09/06 08:30:12;;;;;;;493.50;468.38;;;22.50;99.90;;;;;;5024989;28;20045;-71
2023/09/06 08:32:42;;;;;;;526.78;498.95;;;22.70;99.90;;;;;;5052996;28;20174;-71
2023/09/06 08:35:11;;;;;;;406.15;386.05;;;22.80;99.90;;;;;;5046224;28;20123;-71
2023/09/06 08:37:38;;;;;;;436.75;414.67;;;23.00;99.90;;;;;;5038789;28;20186;-71
2023/09/06 08:40:07;;;;;;;495.48;469.85;;;23.00;99.90;;;;;;5043167;28;20052;-71
2023/09/06 08:42:34;;;;;;;488.10;462.83;;;23.10;99.90;;;;;;5041322;28;20103;-71
2023/09/06 08:45:07;;;;;;;365.05;347.73;;;23.20;99.90;;;;;;5031477;28;20045;-71
2023/09/06 08:47:35;;;;;;;384.80;365.88;;;23.40;99.90;;;;;;5039628;28;20044;-71
2023/09/06 08:50:02;;;;;;;387.80;368.95;;;23.50;99.90;;;;;;5048913;28;20148;-71
2023/09/06 08:52:30;;;;;;;411.45;390.98;;;23.70;99.90;;;;;;5052409;28;20049;-71
2023/09/06 08:54:55;;;;;;;404.13;384.05;;;24.00;99.90;;;;;;5050514;28;20044;-71
2023/09/06 08:57:21;;;;;;;430.75;409.25;;;24.60;99.90;;;;;;5042891;28;20052;-71
2023/09/06 08:59:47;;;;;;;419.20;398.27;;;25.50;99.90;;;;;;5045306;28;20120;-71
2023/09/06 09:02:14;;;;;;;463.77;440.08;;;26.30;99.90;;;;;;5046245;28;20119;-71
2023/09/06 09:04:42;;;;;;;581.88;549.28;;;26.80;99.90;;;;;;5027760;28;20056;-71
2023/09/06 09:07:11;;;;;;;575.15;543.20;;;27.20;99.90;;;;;;5048546;28;20136;-71
2023/09/06 09:09:56;;;;;;;557.53;526.92;;;27.70;99.90;;;;;;5050311;28;20044;-72
2023/09/06 09:12:28;;;;;;;;;;;28.10;99.90;;;;;;5053571;28;20045;-71
2023/09/06 09:14:56;;;;;;;505.10;478.40;;;28.40;99.90;;;;;;5024064;28;20214;-71
2023/09/06 09:17:22;;;;;;;478.58;453.63;;;28.70;99.90;;;;;;5049200;28;20128;-71
2023/09/06 09:19:50;;;;;;;513.45;486.58;;;28.80;99.90;;;;;;5059615;28;20045;-72
2023/09/06 09:22:28;;;;;;;504.48;477.77;;;29.00;99.90;;;;;;5053545;28;20037;-72
2023/09/06 09:25:13;;;;;;;549.97;519.75;;;29.10;99.90;;;;;;5028156;28;20095;-71
2023/09/06 09:27:39;;;;;;;501.92;475.20;;;29.20;99.90;;;;;;5046533;28;20055;-72
2023/09/06 09:30:07;;;;;;;514.22;486.80;;;29.20;99.90;;;;;;5042059;28;20140;-72
2023/09/06 09:32:32;;;;;;;504.85;477.95;;;29.20;99.90;;;;;;5045102;28;20049;-72
2023/09/06 09:34:58;;;;;;;531.25;502.52;;;29.20;99.90;;;;;;5029034;28;20044;-72
2023/09/06 09:37:24;;;;;;;526.60;498.23;;;29.20;99.90;;;;;;5043784;28;20485;-72
2023/09/06 09:39:49;;;;;;;531.83;503.23;;;29.20;99.90;;;;;;5041969;28;20041;-71
2023/09/06 09:42:15;;;;;;;484.65;459.80;;;29.20;99.90;;;;;;5062703;28;20130;-71
2023/09/06 09:44:41;;;;;;;465.33;441.67;;;29.20;99.90;;;;;;5046495;28;20593;-69
2023/09/06 09:47:14;;;;;;;430.52;409.17;;;29.20;99.90;;;;;;5060917;28;20202;-69
2023/09/06 09:49:41;;;;;;;315.95;301.52;;;29.20;99.90;;;;;;5041200;28;20048;-69
2023/09/06 09:52:14;;;;;;;388.08;369.70;;;29.20;99.90;;;;;;5049037;28;20041;-69
2023/09/06 09:54:47;;;;;;;420.20;399.20;;;29.20;99.90;;;;;;5044032;28;20041;-69
2023/09/06 09:57:14;;;;;;;328.42;313.05;;;29.20;99.90;;;;;;5053962;28;20045;-69
2023/09/06 09:59:40;;;;;;;329.27;313.98;;;29.20;99.90;;;;;;5048832;28;20682;-69
2023/09/06 10:02:09;;;;;;;369.58;351.58;;;29.30;99.90;;;;;;5056920;28;20059;-69
2023/09/06 10:04:38;;;;;;;268.52;256.75;;;29.40;99.90;;;;;;5060361;28;20079;-69
2023/09/06 10:07:06;;;;;;;259.58;248.20;;;29.50;99.90;;;;;;5054807;28;20477;-69
2023/09/06 10:09:37;;;;;;;245.38;234.68;;;29.60;99.90;;;;;;5052083;28;20045;-69
2023/09/06 10:12:07;;;;;;;197.02;188.60;;;29.80;99.90;;;;;;5057981;28;20452;-69
2023/09/06 10:14:33;;;;;;;221.52;211.93;;;29.90;99.90;;;;;;5050330;28;20044;-69
2023/09/06 10:17:00;;;;;;;177.48;169.85;;;30.00;99.90;;;;;;5030531;28;20067;-69
2023/09/06 10:19:27;;;;;;;200.07;191.30;;;30.10;99.90;;;;;;5032978;28;20485;-69
2023/09/06 10:21:53;;;;;;;159.07;152.32;;;30.20;99.50;;;;;;5053723;28;20037;-69
2023/09/06 10:24:22;;;;;;;181.32;173.43;;;30.30;99.90;;;;;;5048119;28;20160;-69
2023/09/06 10:26:49;;;;;;;170.80;163.45;;;30.30;98.70;;;;;;5046589;28;20056;-69
2023/09/06 10:29:22;;;;;;;151.93;145.13;;;30.30;99.00;;;;;;5044319;28;20049;-69
2023/09/06 10:31:49;;;;;;;179.40;171.30;;;30.40;99.70;;;;;;5066710;28;20052;-71
2023/09/06 10:34:15;;;;;;;146.45;140.15;;;30.50;98.20;;;;;;5046301;28;20422;-72
2023/09/06 10:36:55;;;;;;;150.10;143.57;;;30.50;98.10;;;;;;5042810;28;20051;-71
2023/09/06 10:39:22;;;;;;;129.70;124.25;;;30.60;98.20;;;;;;5058910;28;20697;-69
2023/09/06 10:42:13;;;;;;;133.65;127.93;;;30.70;99.30;;;;;;5066209;28;20567;-69
2023/09/06 10:44:54;;;;;;;125.28;119.97;;;30.80;97.50;;;;;;5042685;28;20167;-69
2023/09/06 10:47:34;;;;;;;123.25;117.95;;;30.80;96.80;;;;;;5061305;28;20068;-69
2023/09/06 10:50:20;;;;;;;122.25;116.93;;;30.90;98.60;;;;;;5044559;28;20131;-69
2023/09/06 10:52:56;;;;;;;110.38;105.63;;;31.10;98.70;;;;;;5040648;28;20083;-69
2023/09/06 10:55:27;;;;;;;106.97;102.38;;;31.20;98.70;;;;;;5030135;28;20405;-68
2023/09/06 10:57:54;;;;;;;107.05;102.50;;;31.30;98.40;;;;;;5031907;28;20052;-71
2023/09/06 11:00:27;;;;;;;108.45;103.65;;;31.40;97.90;;;;;;5041613;28;20116;-69
2023/09/06 11:03:07;;;;;;;100.63;96.25;;;31.50;97.20;;;;;;5026578;28;20105;-69
2023/09/06 11:05:39;;;;;;;106.05;101.32;;;31.50;96.40;;;;;;5039610;28;20098;-69
2023/09/06 11:08:06;;;;;;;101.20;96.85;;;31.50;96.70;;;;;;5043296;28;20087;-70
2023/09/06 11:10:33;;;;;;;174.43;166.23;;;31.40;95.60;;;;;;5032627;28;20378;-70
2023/09/06 11:13:12;;;;;;;126.00;120.50;;;31.30;95.60;;;;;;5043642;28;20041;-70
2023/09/06 11:15:39;;;;;;;63.58;60.58;;;31.40;96.60;;;;;;5044962;28;20052;-70
2023/09/06 11:18:05;;;;;;;55.40;52.88;;;31.40;95.00;;;;;;5052955;28;20047;-70
2023/09/06 11:20:33;;;;;;;57.03;54.47;;;31.40;95.10;;;;;;5044474;28;20128;-70
2023/09/06 11:22:59;;;;;;;58.45;55.72;;;31.40;95.60;;;;;;5050294;28;20037;-70
2023/09/06 11:25:27;;;;;;;67.00;63.95;;;31.50;95.30;;;;;;5045864;28;20098;-69
2023/09/06 11:27:56;;;;;;;65.65;62.72;;;31.60;93.90;;;;;;5047496;28;20044;-70
2023/09/06 11:30:23;;;;;;;63.55;60.65;;;31.60;94.50;;;;;;5045886;28;20029;-70
2023/09/06 11:32:53;;;;;;;52.03;49.55;;;31.50;94.20;;;;;;5048075;28;20040;-70
2023/09/06 11:35:22;;;;;;;76.85;73.03;;;31.50;93.30;;;;;;5028895;28;20095;-70
2023/09/06 11:37:51;;;;;;;52.10;49.65;;;31.60;94.80;;;;;;5040625;28;20515;-70
2023/09/06 11:40:20;;;;;;;35.92;34.08;;;31.60;93.60;;;;;;5051675;28;20068;-70
2023/09/06 11:42:52;;;;;;;46.80;44.60;;;31.80;94.30;;;;;;5041937;28;20617;-70
2023/09/06 11:45:20;;;;;;;69.18;66.10;;;31.90;93.60;;;;;;5045822;28;20378;-70
2023/09/06 11:47:46;;;;;;;42.33;40.20;;;32.00;93.30;;;;;;5043107;28;20055;-70
2023/09/06 11:50:15;;;;;;;72.00;68.78;;;32.10;92.20;;;;;;5047139;28;20047;-70
2023/09/06 11:52:49;;;;;;;69.82;66.65;;;32.20;92.40;;;;;;5058863;28;20041;-70
2023/09/06 11:55:18;;;;;;;56.53;54.00;;;32.20;92.30;;;;;;5046733;28;20095;-70
2023/09/06 11:57:52;;;;;;;41.30;39.30;;;32.30;91.80;;;;;;5043783;28;20080;-70
2023/09/06 12:00:28;;;;;;;66.97;64.00;;;32.40;93.00;;;;;;5050606;28;20396;-70
2023/09/06 12:03:03;;;;;;;78.53;74.88;;;32.40;92.30;;;;;;5046313;28;20374;-70
2023/09/06 12:05:29;;;;;;;203.48;193.73;;;32.40;92.20;;;;;;5033240;28;20053;-70
2023/09/06 12:07:55;;;;;;;271.13;257.45;;;32.40;91.70;;;;;;5048756;28;20041;-70